createdAt,value
2018-01-26T00:01:51.893Z,96877.20
2018-01-26T00:04:20.201Z,96875.56
2018-01-26T00:06:48.517Z,96872.73
2018-01-26T00:09:19.455Z,96870.70
2018-01-26T00:11:47.808Z,96872.44
2018-01-26T00:14:16.135Z,96872.08
2018-01-26T00:16:44.488Z,96870.75
2018-01-26T00:19:12.792Z,96864.42
2018-01-26T00:21:42.751Z,96864.30
2018-01-26T00:24:12.827Z,96855.47
2018-01-26T00:26:41.187Z,96858.75
2018-01-26T00:29:09.473Z,96861.27
2018-01-26T00:31:37.758Z,96862.92
2018-01-26T00:34:06.072Z,96867.98
2018-01-26T00:36:36.959Z,96874.61
2018-01-26T00:39:06.051Z,96877.94
2018-01-26T00:41:34.393Z,96881.23
2018-01-26T00:44:04.425Z,96889.16
2018-01-26T00:46:32.783Z,96885.00
2018-01-26T00:49:01.213Z,96893.40
2018-01-26T00:51:29.683Z,96890.45
2018-01-26T00:53:58.266Z,96894.61
2018-01-26T00:56:26.549Z,96889.98
2018-01-26T00:58:54.920Z,96882.44
2018-01-26T01:01:23.195Z,96884.88
2018-01-26T01:03:51.482Z,96886.91
2018-01-26T01:06:19.897Z,96882.66
2018-01-26T01:08:48.196Z,96883.05
2018-01-26T01:11:16.460Z,96880.41
2018-01-26T01:13:44.847Z,96884.56
2018-01-26T01:16:13.207Z,96874.44
2018-01-26T01:18:41.541Z,96876.39
2018-01-26T01:21:11.513Z,96875.56
2018-01-26T01:23:39.886Z,96879.80
2018-01-26T01:26:08.228Z,96873.02
2018-01-26T01:28:38.386Z,96876.21
2018-01-26T01:31:06.759Z,96875.73
2018-01-26T01:33:35.098Z,96881.23
2018-01-26T01:36:03.378Z,96876.99
2018-01-26T01:38:31.701Z,96879.07
2018-01-26T01:41:00.012Z,96870.97
2018-01-26T01:43:28.365Z,96867.94
2018-01-26T01:45:58.426Z,96856.17
2018-01-26T01:48:26.812Z,96855.27
2018-01-26T01:50:55.123Z,96855.52
2018-01-26T01:53:23.465Z,96855.13
2018-01-26T01:55:51.841Z,96855.47
2018-01-26T01:58:21.777Z,96860.40
2018-01-26T02:00:50.135Z,96852.00
2018-01-26T02:03:19.218Z,96848.58
2018-01-26T02:05:48.318Z,96848.88
2018-01-26T02:08:16.604Z,96847.92
2018-01-26T02:10:44.982Z,96851.17
2018-01-26T02:13:13.256Z,96841.05
2018-01-26T02:15:41.626Z,96843.07
2018-01-26T02:18:09.920Z,96833.30
2018-01-26T02:20:38.460Z,96829.35
2018-01-26T02:23:06.982Z,96830.90
2018-01-26T02:25:35.432Z,96832.45
2018-01-26T02:28:03.726Z,96835.73
2018-01-26T02:30:32.067Z,96832.36
2018-01-26T02:33:00.429Z,96824.45
2018-01-26T02:35:31.074Z,96822.33
2018-01-26T02:37:59.444Z,96825.13
2018-01-26T02:40:27.743Z,96825.86
2018-01-26T02:42:57.709Z,96825.73
2018-01-26T02:45:26.065Z,96817.25
2018-01-26T02:47:54.378Z,96813.30
2018-01-26T02:50:22.697Z,96809.88
2018-01-26T02:52:52.786Z,96811.42
2018-01-26T02:55:23.643Z,96807.61
2018-01-26T02:57:52.738Z,96810.47
2018-01-26T03:00:21.006Z,96810.84
2018-01-26T03:02:51.544Z,96811.66
2018-01-26T03:05:21.910Z,96816.77
2018-01-26T03:07:52.640Z,96835.19
2018-01-26T03:10:20.914Z,96827.58
2018-01-26T03:12:49.236Z,96823.81
2018-01-26T03:15:20.130Z,96843.10
2018-01-26T03:17:51.044Z,96865.36
2018-01-26T03:20:21.076Z,96861.80
2018-01-26T03:22:49.375Z,96864.22
2018-01-26T03:25:17.676Z,96871.05
2018-01-26T03:27:45.964Z,96864.26
2018-01-26T03:30:14.285Z,96862.03
2018-01-26T03:32:42.655Z,96861.84
2018-01-26T03:35:10.952Z,96861.31
2018-01-26T03:37:39.235Z,96854.03
2018-01-26T03:40:07.597Z,96859.38
2018-01-26T03:42:35.884Z,96854.70
2018-01-26T03:45:04.302Z,96848.33
2018-01-26T03:47:32.617Z,96846.50
2018-01-26T03:50:00.912Z,96856.71
2018-01-26T03:52:34.896Z,96850.73
2018-01-26T03:55:03.292Z,96852.27
2018-01-26T03:57:31.632Z,96856.36
2018-01-26T04:00:02.675Z,96858.27
2018-01-26T04:02:31.053Z,96856.42
2018-01-26T04:04:59.416Z,96851.33
2018-01-26T04:07:27.715Z,96852.95
2018-01-26T04:09:55.995Z,96855.41
2018-01-26T04:12:24.348Z,96850.02
2018-01-26T04:14:52.687Z,96847.58
2018-01-26T04:17:21.059Z,96842.56
2018-01-26T04:19:49.434Z,96832.55
2018-01-26T04:22:17.727Z,96832.50
2018-01-26T04:24:47.615Z,96834.99
2018-01-26T04:27:15.950Z,96840.01
2018-01-26T04:29:44.313Z,96839.95
2018-01-26T04:32:12.712Z,96834.50
2018-01-26T04:34:40.991Z,96834.52
2018-01-26T04:37:09.443Z,96824.94
2018-01-26T04:39:37.797Z,96830.33
2018-01-26T04:42:06.090Z,96829.45
2018-01-26T04:44:37.152Z,96822.81
2018-01-26T04:47:05.441Z,96811.94
2018-01-26T04:49:33.781Z,96806.01
2018-01-26T04:52:03.687Z,96811.88
2018-01-26T04:54:32.108Z,96806.48
2018-01-26T04:57:00.495Z,96814.77
2018-01-26T04:59:28.872Z,96819.39
2018-01-26T05:01:57.205Z,96825.27
2018-01-26T05:04:25.728Z,96824.84
2018-01-26T05:06:54.158Z,96825.17
2018-01-26T05:09:22.486Z,96818.36
2018-01-26T05:11:50.792Z,96819.47
2018-01-26T05:14:19.085Z,96822.20
2018-01-26T05:16:47.405Z,96826.67
2018-01-26T05:19:15.763Z,96831.56
2018-01-26T05:21:46.757Z,96836.57
2018-01-26T05:24:15.817Z,96838.94
2018-01-26T05:26:45.877Z,96843.88
2018-01-26T05:29:16.547Z,96863.47
2018-01-26T05:31:44.861Z,96846.37
2018-01-26T05:34:15.020Z,96854.21
2018-01-26T05:36:43.409Z,96862.00
2018-01-26T05:39:12.471Z,96858.09
2018-01-26T05:41:40.783Z,96865.44
2018-01-26T05:44:09.145Z,96865.55
2018-01-26T05:46:39.167Z,96865.86
2018-01-26T05:49:09.522Z,96876.09
2018-01-26T05:51:38.751Z,96865.22
2018-01-26T05:54:07.135Z,96876.41
2018-01-26T05:56:35.447Z,96873.33
2018-01-26T05:59:03.882Z,96888.66
2018-01-26T06:01:32.203Z,96871.95
2018-01-26T06:04:00.572Z,96875.16
2018-01-26T06:06:28.905Z,96886.75
2018-01-26T06:08:57.189Z,96898.77
2018-01-26T06:11:25.477Z,96897.84
2018-01-26T06:13:55.524Z,96889.78
2018-01-26T06:16:23.921Z,96884.35
2018-01-26T06:18:52.241Z,96884.72
2018-01-26T06:21:20.567Z,96894.30
2018-01-26T06:23:48.889Z,96898.00
2018-01-26T06:26:19.902Z,96896.34
2018-01-26T06:28:48.306Z,96906.36
2018-01-26T06:31:16.636Z,96911.75
2018-01-26T06:33:44.932Z,96902.55
2018-01-26T06:36:14.074Z,96906.30
2018-01-26T06:38:42.450Z,96900.38
2018-01-26T06:41:11.522Z,96906.58
2018-01-26T06:43:41.564Z,96911.58
2018-01-26T06:46:10.033Z,96917.88
2018-01-26T06:48:39.955Z,96911.68
2018-01-26T06:51:08.340Z,96912.11
2018-01-26T06:53:36.644Z,96906.67
2018-01-26T06:56:05.056Z,96912.50
2018-01-26T06:58:33.378Z,96909.95
2018-01-26T07:01:01.744Z,96908.74
2018-01-26T07:03:30.025Z,96900.42
2018-01-26T07:05:58.355Z,96896.58
2018-01-26T07:08:28.941Z,96903.20
2018-01-26T07:10:58.883Z,96908.59
2018-01-26T07:13:27.227Z,96909.39
2018-01-26T07:15:55.509Z,96907.34
2018-01-26T07:18:24.578Z,96909.83
2018-01-26T07:20:55.459Z,96918.14
2018-01-26T07:23:23.821Z,96913.91
2018-01-26T07:25:52.122Z,96924.66
2018-01-26T07:28:21.206Z,96922.98
2018-01-26T07:30:49.563Z,96919.61
2018-01-26T07:33:18.807Z,96911.34
2018-01-26T07:35:47.888Z,96907.97
2018-01-26T07:38:16.238Z,96903.36
2018-01-26T07:40:44.620Z,96905.42
2018-01-26T07:43:12.932Z,96902.55
2018-01-26T07:45:44.046Z,96904.27
2018-01-26T07:48:13.232Z,96900.97
2018-01-26T07:50:43.242Z,96893.03
2018-01-26T07:53:13.299Z,96890.53
2018-01-26T07:55:42.969Z,96884.39
2018-01-26T07:58:12.042Z,96882.81
2018-01-26T08:00:40.444Z,96877.02
2018-01-26T08:03:10.512Z,96881.30
2018-01-26T08:05:38.994Z,96892.66
2018-01-26T08:08:08.084Z,96892.67
2018-01-26T08:10:36.426Z,96897.78
2018-01-26T08:13:04.912Z,96890.39
2018-01-26T08:15:33.236Z,96892.14
2018-01-26T08:18:01.624Z,96892.61
2018-01-26T08:20:30.009Z,96888.53
2018-01-26T08:22:58.329Z,96893.22
2018-01-26T08:25:26.695Z,96886.59
2018-01-26T08:27:56.698Z,96889.20
2018-01-26T08:30:25.148Z,96891.33
2018-01-26T08:32:57.077Z,96886.91
2018-01-26T08:35:26.141Z,96905.40
2018-01-26T08:37:54.658Z,96908.67
2018-01-26T08:40:23.104Z,96910.13
2018-01-26T08:42:51.850Z,96910.42
2018-01-26T08:45:20.191Z,96917.59
2018-01-26T08:47:48.578Z,96913.52
2018-01-26T08:50:17.674Z,96915.05
2018-01-26T08:52:46.096Z,96921.56
2018-01-26T08:55:21.702Z,96915.97
2018-01-26T08:57:50.232Z,96908.28
2018-01-26T09:00:20.326Z,96899.78
2018-01-26T09:02:48.748Z,96898.84
2018-01-26T09:05:17.094Z,96887.72
2018-01-26T09:07:45.620Z,96888.27
2018-01-26T09:10:13.988Z,96895.51
2018-01-26T09:12:43.930Z,96894.41
2018-01-26T09:15:12.412Z,96895.38
2018-01-26T09:17:42.506Z,96902.19
2018-01-26T09:20:10.938Z,96915.82
2018-01-26T09:22:43.427Z,96924.70
2018-01-26T09:25:12.438Z,96917.66
2018-01-26T09:27:40.771Z,96919.55
2018-01-26T09:30:10.798Z,96920.95
2018-01-26T09:32:39.260Z,96933.73
2018-01-26T09:35:08.362Z,96938.28
2018-01-26T09:37:36.772Z,96948.08
2018-01-26T09:40:06.694Z,96952.80
2018-01-26T09:42:35.881Z,96950.49
2018-01-26T09:45:04.290Z,96949.59
2018-01-26T09:50:07.164Z,96949.73
2018-01-26T09:52:35.553Z,96949.94
2018-01-26T09:55:03.887Z,96952.73
2018-01-26T09:57:34.042Z,96945.45
2018-01-26T10:00:04.376Z,96938.98
2018-01-26T10:02:35.406Z,96940.95
2018-01-26T10:05:03.757Z,96939.58
2018-01-26T10:07:32.118Z,96933.70
2018-01-26T10:10:00.579Z,96940.54
2018-01-26T10:12:30.673Z,96937.77
2018-01-26T10:14:59.036Z,96948.05
2018-01-26T10:17:28.911Z,96955.55
2018-01-26T10:19:57.317Z,96961.92
2018-01-26T10:22:25.638Z,96956.98
2018-01-26T10:24:53.985Z,96956.56
2018-01-26T10:27:22.299Z,96965.05
2018-01-26T10:29:53.274Z,96964.75
2018-01-26T10:32:21.688Z,96958.25
2018-01-26T10:34:50.013Z,96946.58
2018-01-26T10:37:18.541Z,96952.16
2018-01-26T10:39:46.871Z,96945.75
2018-01-26T10:42:16.846Z,96942.55
2018-01-26T10:44:46.116Z,96939.34
2018-01-26T10:47:14.494Z,96949.09
2018-01-26T10:49:45.577Z,96939.28
2018-01-26T10:52:13.955Z,96939.45
2018-01-26T10:54:42.295Z,96934.98
2018-01-26T10:57:11.927Z,96941.39
2018-01-26T10:59:40.288Z,96934.38
2018-01-26T11:02:10.803Z,96926.02
2018-01-26T11:04:41.464Z,96926.25
2018-01-26T11:07:09.767Z,96920.56
2018-01-26T11:09:39.448Z,96927.67
2018-01-26T11:12:08.851Z,96934.12
2018-01-26T11:14:39.215Z,96932.82
2018-01-26T11:17:12.569Z,96925.79
2018-01-26T11:19:40.924Z,96927.91
2018-01-26T11:22:09.483Z,96920.53
2018-01-26T11:24:37.902Z,96921.28
2018-01-26T11:27:07.955Z,96923.00
2018-01-26T11:29:36.325Z,96932.32
2018-01-26T11:32:04.711Z,96942.58
2018-01-26T11:34:33.104Z,96951.53
2018-01-26T11:37:01.412Z,96951.27
2018-01-26T11:39:29.768Z,96962.34
2018-01-26T11:41:58.073Z,96966.75
2018-01-26T11:44:28.485Z,96961.25
2018-01-26T11:46:59.155Z,96960.94
2018-01-26T11:49:27.563Z,96954.88
2018-01-26T11:51:57.617Z,96954.27
2018-01-26T11:54:25.991Z,96967.91
2018-01-26T11:56:54.397Z,96958.89
2018-01-26T11:59:22.768Z,96962.31
2018-01-26T12:01:51.125Z,96961.13
2018-01-26T12:04:21.531Z,96963.27
2018-01-26T12:06:49.877Z,96956.92
2018-01-26T12:09:18.929Z,96951.70
2018-01-26T12:11:47.371Z,96958.25
2018-01-26T12:14:16.417Z,96967.27
2018-01-26T12:16:44.761Z,96959.02
2018-01-26T12:19:13.099Z,96959.95
2018-01-26T12:21:41.466Z,96958.70
2018-01-26T12:24:11.477Z,96963.30
2018-01-26T12:26:42.365Z,96959.23
2018-01-26T12:29:10.741Z,96956.88
2018-01-26T12:31:41.989Z,96954.88
2018-01-26T12:36:44.960Z,96937.23
2018-01-26T12:39:13.297Z,96938.71
2018-01-26T12:41:41.630Z,96943.88
2018-01-26T12:44:10.185Z,96947.82
2018-01-26T12:46:38.616Z,96942.93
2018-01-26T12:49:06.913Z,96940.90
2018-01-26T12:51:37.135Z,96952.37
2018-01-26T12:54:10.603Z,96960.03
2018-01-26T12:56:41.510Z,96966.27
2018-01-26T12:59:09.856Z,96966.70
2018-01-26T13:01:42.088Z,96972.15
2018-01-26T13:04:13.113Z,96974.42
2018-01-26T13:06:41.600Z,96968.64
2018-01-26T13:09:10.692Z,96965.75
2018-01-26T13:11:38.973Z,96966.03
2018-01-26T13:14:07.329Z,96968.03
2018-01-26T13:16:35.622Z,96968.39
2018-01-26T13:19:03.963Z,96965.54
2018-01-26T13:21:34.072Z,96968.46
2018-01-26T13:24:03.172Z,96966.27
2018-01-26T13:26:31.602Z,96966.89
2018-01-26T13:29:00.009Z,96963.41
2018-01-26T13:31:29.999Z,96966.34
2018-01-26T13:33:58.438Z,96974.02
2018-01-26T13:36:27.641Z,96974.52
2018-01-26T13:38:55.858Z,96979.23
2018-01-26T13:41:24.155Z,96975.05
2018-01-26T13:43:52.579Z,96982.73
2018-01-26T13:46:21.210Z,96986.12
2018-01-26T13:48:49.570Z,96981.05
2018-01-26T13:51:18.080Z,96986.92
2018-01-26T13:53:46.681Z,96988.61
2018-01-26T13:56:15.022Z,96996.18
2018-01-26T13:58:43.458Z,96996.21
2018-01-26T14:01:11.768Z,96995.75
2018-01-26T14:03:40.177Z,96994.45
2018-01-26T14:06:08.782Z,96993.22
2018-01-26T14:08:37.102Z,96997.10
2018-01-26T14:11:07.049Z,96996.58
2018-01-26T14:13:37.148Z,96999.07
2018-01-26T14:16:05.565Z,97004.05
2018-01-26T14:18:33.954Z,97001.62
2018-01-26T14:21:05.282Z,97002.15
2018-01-26T14:23:34.396Z,97004.67
2018-01-26T14:26:02.767Z,96999.13
2018-01-26T14:28:31.070Z,96993.53
2018-01-26T14:30:59.409Z,96996.76
2018-01-26T14:33:28.515Z,96999.64
2018-01-26T14:35:58.926Z,96999.52
2018-01-26T14:38:29.758Z,97003.17
2018-01-26T14:40:58.084Z,97005.16
2018-01-26T14:43:28.374Z,97002.91
2018-01-26T14:45:56.862Z,97004.97
2018-01-26T14:48:27.046Z,97016.34
2018-01-26T14:50:57.071Z,97018.87
2018-01-26T14:53:25.599Z,97023.41
2018-01-26T14:55:54.019Z,97022.09
2018-01-26T14:58:22.435Z,97029.22
2018-01-26T15:00:50.777Z,97035.09
2018-01-26T15:03:21.691Z,97047.23
2018-01-26T15:05:51.964Z,97043.81
2018-01-26T15:08:22.812Z,97045.40
2018-01-26T15:10:51.289Z,97054.55
2018-01-26T15:13:19.660Z,97048.11
2018-01-26T15:15:49.212Z,97050.45
2018-01-26T15:18:17.725Z,97052.79
2018-01-26T15:20:46.818Z,97058.55
2018-01-26T15:23:18.686Z,97058.41
2018-01-26T15:25:47.158Z,97069.20
2018-01-26T15:28:16.251Z,97074.56
2018-01-26T15:30:44.840Z,97071.06
2018-01-26T15:33:15.888Z,97086.89
2018-01-26T15:35:44.432Z,97088.83
2018-01-26T15:38:12.962Z,97087.42
2018-01-26T15:40:41.314Z,97090.21
2018-01-26T15:43:10.448Z,97095.09
2018-01-26T15:45:38.845Z,97097.92
2018-01-26T15:48:07.174Z,97097.80
2018-01-26T15:50:35.505Z,97096.39
2018-01-26T15:53:03.877Z,97096.63
2018-01-26T15:55:32.272Z,97096.47
2018-01-26T15:58:00.604Z,97103.86
2018-01-26T16:00:31.043Z,97107.12
2018-01-26T16:03:01.347Z,97120.84
2018-01-26T16:05:31.635Z,97124.05
2018-01-26T16:07:59.943Z,97121.45
2018-01-26T16:10:29.913Z,97118.73
2018-01-26T16:13:00.811Z,97129.09
2018-01-26T16:15:29.127Z,97135.22
2018-01-26T16:17:57.590Z,97135.09
2018-01-26T16:20:25.934Z,97151.27
2018-01-26T16:22:57.270Z,97154.91
2018-01-26T16:25:25.757Z,97155.59
2018-01-26T16:27:54.241Z,97159.63
2018-01-26T16:30:22.650Z,97160.36
2018-01-26T16:32:51.034Z,97164.78
2018-01-26T16:35:20.215Z,97168.42
2018-01-26T16:37:48.593Z,97176.69
2018-01-26T16:53:17.879Z,97193.02
2018-01-26T16:55:47.608Z,97195.05
2018-01-26T16:58:16.039Z,97196.17
2018-01-26T17:00:44.415Z,97198.49
2018-01-26T17:03:12.755Z,97195.87
2018-01-26T17:05:41.092Z,97203.22
2018-01-26T17:08:12.359Z,97211.20
2018-01-26T17:10:42.396Z,97218.73
2018-01-26T17:13:10.734Z,97211.92
2018-01-26T17:15:39.060Z,97208.44
2018-01-26T17:18:07.387Z,97217.04
2018-01-26T17:20:36.540Z,97219.40
2018-01-26T17:23:05.001Z,97218.52
2018-01-26T17:25:33.603Z,97219.27
2018-01-26T17:28:02.123Z,97231.04
2018-01-26T17:30:30.578Z,97244.89
2018-01-26T17:32:59.051Z,97246.11
2018-01-26T17:35:27.486Z,97243.89
2018-01-26T17:37:57.747Z,97244.66
2018-01-26T17:40:29.768Z,97245.27
2018-01-26T17:42:58.204Z,97240.44
2018-01-26T17:45:26.503Z,97246.12
2018-01-26T17:47:54.955Z,97244.32
2018-01-26T17:50:23.280Z,97249.69
2018-01-26T17:52:51.722Z,97254.60
2018-01-26T17:55:20.219Z,97248.55
2018-01-26T17:57:51.265Z,97264.76
2018-01-26T18:00:19.771Z,97266.25
2018-01-26T18:02:48.166Z,97267.78
2018-01-26T18:05:18.681Z,97270.17
2018-01-26T18:07:47.154Z,97264.13
2018-01-26T18:10:15.777Z,97266.09
2018-01-26T18:12:44.149Z,97265.98
2018-01-26T18:15:12.577Z,97273.41
2018-01-26T18:17:43.899Z,97276.64
2018-01-26T18:20:13.004Z,97273.20
2018-01-26T18:22:41.355Z,97281.11
2018-01-26T18:25:09.706Z,97283.12
2018-01-26T18:27:38.058Z,97282.20
2018-01-26T18:30:07.283Z,97283.36
2018-01-26T18:32:37.303Z,97288.25
2018-01-26T18:35:05.814Z,97288.09
2018-01-26T18:37:37.236Z,97291.84
2018-01-26T18:40:05.754Z,97290.50
2018-01-26T18:42:35.930Z,97288.69
2018-01-26T18:45:04.418Z,97292.34
2018-01-26T18:47:33.674Z,97294.41
2018-01-26T18:50:02.185Z,97291.36
2018-01-26T18:52:30.580Z,97295.49
2018-01-26T18:55:00.785Z,97290.38
2018-01-26T18:57:31.688Z,97306.23
2018-01-26T19:00:01.400Z,97310.72
2018-01-26T19:02:29.752Z,97310.48
2018-01-26T19:04:58.102Z,97311.56
2018-01-26T19:07:27.762Z,97314.38
2018-01-26T19:09:56.389Z,97313.80
2018-01-26T19:12:24.842Z,97314.23
2018-01-26T19:14:54.094Z,97313.41
2018-01-26T19:17:22.559Z,97320.06
2018-01-26T19:19:52.847Z,97325.06
2018-01-26T19:22:23.706Z,97329.86
2018-01-26T19:24:52.287Z,97338.02
2018-01-26T19:27:20.773Z,97336.97
2018-01-26T19:29:51.926Z,97339.36
2018-01-26T19:32:21.940Z,97337.17
2018-01-26T19:34:50.341Z,97332.16
2018-01-26T19:37:18.993Z,97336.73
2018-01-26T19:39:48.970Z,97339.24
2018-01-26T19:42:17.908Z,97345.95
2018-01-26T19:44:46.387Z,97352.10
2018-01-26T19:47:14.982Z,97350.22
2018-01-26T19:49:43.542Z,97356.57
2018-01-26T19:52:14.111Z,97350.50
2018-01-26T19:54:42.761Z,97359.09
2018-01-26T19:57:11.269Z,97367.41
2018-01-26T19:59:39.769Z,97382.71
2018-01-26T20:02:08.468Z,97380.64
2018-01-26T20:04:42.585Z,97384.22
2018-01-26T20:07:31.140Z,97390.53
2018-01-26T20:10:00.802Z,97397.61
2018-01-26T20:12:34.713Z,97389.97
2018-01-26T20:15:03.310Z,97394.05
2018-01-26T20:17:31.888Z,97394.81
2018-01-26T20:20:02.623Z,97393.05
2018-01-26T20:22:31.236Z,97397.62
2018-01-26T20:24:59.698Z,97404.00
2018-01-26T20:27:29.213Z,97402.77
2018-01-26T20:29:59.318Z,97409.51
2018-01-26T20:32:29.481Z,97416.16
2018-01-26T20:34:58.039Z,97416.92
2018-01-26T20:37:26.660Z,97421.91
2018-01-26T20:39:55.213Z,97428.55
2018-01-26T20:42:23.912Z,97422.67
2018-01-26T20:44:52.376Z,97432.63
2018-01-26T20:47:21.589Z,97430.81
2018-01-26T20:49:50.375Z,97429.02
2018-01-26T20:52:18.968Z,97425.61
2018-01-26T20:54:47.961Z,97428.06
2018-01-26T20:57:16.566Z,97433.13
2018-01-26T20:59:45.044Z,97434.82
2018-01-26T21:02:13.624Z,97442.27
2018-01-26T21:04:43.815Z,97441.88
2018-01-26T21:07:12.339Z,97443.45
2018-01-26T21:09:40.820Z,97442.13
2018-01-26T21:12:09.298Z,97443.97
2018-01-26T21:14:37.821Z,97449.70
2018-01-26T21:17:06.300Z,97446.21
2018-01-26T21:19:34.819Z,97451.39
2018-01-26T21:22:03.208Z,97461.05
2018-01-26T21:24:33.271Z,97465.11
2018-01-26T21:27:01.717Z,97463.86
2018-01-26T21:29:30.189Z,97464.72
2018-01-26T21:31:58.676Z,97469.29
2018-01-26T21:34:28.907Z,97468.42
2018-01-26T21:36:58.353Z,97467.22
2018-01-26T21:39:26.905Z,97484.24
2018-01-26T21:41:55.265Z,97474.23
2018-01-26T21:44:23.679Z,97481.38
2018-01-26T21:46:53.764Z,97480.14
2018-01-26T21:49:22.140Z,97487.25
2018-01-26T21:51:52.177Z,97487.65
2018-01-26T21:54:20.661Z,97496.39
2018-01-26T21:56:48.995Z,97495.07
2018-01-26T21:59:17.307Z,97501.27
2018-01-26T22:01:45.664Z,97507.33
2018-01-26T22:04:14.006Z,97526.74
2018-01-26T22:06:49.434Z,97516.73
2018-01-26T22:09:17.851Z,97517.59
2018-01-26T22:11:46.365Z,97524.85
2018-01-26T22:14:17.394Z,97524.05
2018-01-26T22:16:45.726Z,97519.48
2018-01-26T22:19:14.134Z,97514.47
2018-01-26T22:21:42.495Z,97523.19
2018-01-26T22:24:10.785Z,97531.05
2018-01-26T22:26:40.863Z,97544.88
2018-01-26T22:29:09.249Z,97545.63
2018-01-26T22:31:37.644Z,97549.70
2018-01-26T22:34:07.590Z,97553.47
2018-01-26T22:36:36.803Z,97558.45
2018-01-26T22:39:07.936Z,97559.27
2018-01-26T22:41:36.229Z,97554.20
2018-01-26T22:44:04.592Z,97550.77
2018-01-26T22:46:32.879Z,97552.86
2018-01-26T22:49:01.967Z,97557.07
2018-01-26T22:51:30.449Z,97557.44
2018-01-26T22:53:58.759Z,97566.14
2018-01-26T22:56:30.057Z,97569.03
2018-01-26T22:59:01.152Z,97574.02
2018-01-26T23:01:30.258Z,97591.46
2018-01-26T23:04:01.442Z,97597.88
2018-01-26T23:06:31.061Z,97595.81
2018-01-26T23:09:00.135Z,97604.91
2018-01-26T23:11:28.425Z,97602.41
2018-01-26T23:13:56.753Z,97606.54
2018-01-26T23:16:25.037Z,97609.05
2018-01-26T23:18:53.341Z,97613.10
2018-01-26T23:21:21.692Z,97614.41
2018-01-26T23:23:50.069Z,97619.81
2018-01-26T23:26:19.136Z,97623.63
2018-01-26T23:28:49.053Z,97630.70
2018-01-26T23:31:17.373Z,97628.19
2018-01-26T23:33:45.675Z,97630.77
2018-01-26T23:36:14.744Z,97625.00
2018-01-26T23:38:43.083Z,97625.84
2018-01-26T23:41:11.393Z,97630.52
2018-01-26T23:43:40.787Z,97633.45
2018-01-26T23:46:09.254Z,97642.31
2018-01-26T23:48:39.310Z,97638.67
2018-01-26T23:51:07.767Z,97646.56
2018-01-26T23:53:36.088Z,97646.48
2018-01-26T23:56:04.371Z,97657.25
2018-01-26T23:58:32.681Z,97655.03
